sensor_id;sensor_type;location;lat;lon;timestamp;pressure;altitude;pressure_sealevel;temperature;humidity
18527;BME280;9393;42.158;24.748;2023-07-13T00:02:52;99603.50;;;30.43;52.77
18527;BME280;9393;42.158;24.748;2023-07-13T00:06:00;99610.22;;;30.35;52.89
18527;BME280;9393;42.158;24.748;2023-07-13T00:09:04;99606.19;;;30.33;53.04
18527;BME280;9393;42.158;24.748;2023-07-13T00:12:24;99607.28;;;30.42;52.51
18527;BME280;9393;42.158;24.748;2023-07-13T00:15:28;99601.59;;;30.03;53.89
18527;BME280;9393;42.158;24.748;2023-07-13T00:18:34;99603.50;;;30.33;52.94
18527;BME280;9393;42.158;24.748;2023-07-13T00:21:38;99610.47;;;30.24;53.49
18527;BME280;9393;42.158;24.748;2023-07-13T00:24:42;99600.50;;;30.24;53.12
18527;BME280;9393;42.158;24.748;2023-07-13T00:27:47;99593.53;;;30.23;53.29
18527;BME280;9393;42.158;24.748;2023-07-13T00:30:51;99593.81;;;30.27;53.46
18527;BME280;9393;42.158;24.748;2023-07-13T00:33:56;99597.56;;;30.16;53.96
18527;BME280;9393;42.158;24.748;2023-07-13T00:37:00;99590.56;;;30.20;53.91
18527;BME280;9393;42.158;24.748;2023-07-13T00:40:06;99584.91;;;30.11;54.27
18527;BME280;9393;42.158;24.748;2023-07-13T00:43:15;99584.63;;;30.18;53.59
18527;BME280;9393;42.158;24.748;2023-07-13T00:46:24;99581.97;;;30.13;53.59
18527;BME280;9393;42.158;24.748;2023-07-13T00:49:30;99584.91;;;30.01;54.38
18527;BME280;9393;42.158;24.748;2023-07-13T00:52:38;99582.94;;;29.76;55.29
18527;BME280;9393;42.158;24.748;2023-07-13T00:55:43;99579.19;;;29.77;55.11
18527;BME280;9393;42.158;24.748;2023-07-13T00:58:48;99581.16;;;30.02;53.31
18527;BME280;9393;42.158;24.748;2023-07-13T01:01:54;99576.00;;;29.90;54.03
18527;BME280;9393;42.158;24.748;2023-07-13T01:04:58;99573.31;;;29.90;53.27
18527;BME280;9393;42.158;24.748;2023-07-13T01:08:04;99571.34;;;29.66;54.12
18527;BME280;9393;42.158;24.748;2023-07-13T01:11:08;99573.25;;;29.60;54.01
18527;BME280;9393;42.158;24.748;2023-07-13T01:14:14;99563.25;;;29.45;54.59
18527;BME280;9393;42.158;24.748;2023-07-13T01:17:19;99570.81;;;29.53;53.95
18527;BME280;9393;42.158;24.748;2023-07-13T01:20:23;99567.63;;;29.62;54.38
18527;BME280;9393;42.158;24.748;2023-07-13T01:23:30;99575.16;;;29.75;54.07
18527;BME280;9393;42.158;24.748;2023-07-13T01:26:34;99576.72;;;29.66;54.41
18527;BME280;9393;42.158;24.748;2023-07-13T01:29:43;99573.78;;;29.67;53.83
18527;BME280;9393;42.158;24.748;2023-07-13T01:32:50;99570.53;;;29.55;54.12
18527;BME280;9393;42.158;24.748;2023-07-13T01:35:54;99576.19;;;29.58;53.72
18527;BME280;9393;42.158;24.748;2023-07-13T01:39:01;99574.03;;;29.55;54.06
18527;BME280;9393;42.158;24.748;2023-07-13T01:42:05;99573.75;;;29.47;54.08
18527;BME280;9393;42.158;24.748;2023-07-13T01:45:09;99577.75;;;29.39;54.58
18527;BME280;9393;42.158;24.748;2023-07-13T01:48:13;99580.22;;;29.51;55.26
18527;BME280;9393;42.158;24.748;2023-07-13T01:51:18;99578.03;;;29.48;55.39
18527;BME280;9393;42.158;24.748;2023-07-13T01:54:24;99576.84;;;29.24;55.91
18527;BME280;9393;42.158;24.748;2023-07-13T01:57:28;99577.50;;;29.46;55.51
18527;BME280;9393;42.158;24.748;2023-07-13T02:00:31;99583.66;;;29.41;56.07
18527;BME280;9393;42.158;24.748;2023-07-13T02:03:36;99587.38;;;29.30;56.40
18527;BME280;9393;42.158;24.748;2023-07-13T02:06:40;99583.63;;;29.31;56.24
18527;BME280;9393;42.158;24.748;2023-07-13T02:09:45;99585.56;;;29.41;55.44
18527;BME280;9393;42.158;24.748;2023-07-13T02:12:49;99586.22;;;29.16;56.69
18527;BME280;9393;42.158;24.748;2023-07-13T02:15:54;99596.63;;;29.02;57.52
18527;BME280;9393;42.158;24.748;2023-07-13T02:18:57;99597.72;;;29.12;57.23
18527;BME280;9393;42.158;24.748;2023-07-13T02:22:03;99596.16;;;29.21;56.84
18527;BME280;9393;42.158;24.748;2023-07-13T02:25:08;99602.34;;;29.21;56.39
18527;BME280;9393;42.158;24.748;2023-07-13T02:28:12;99604.78;;;29.23;56.48
18527;BME280;9393;42.158;24.748;2023-07-13T02:31:16;99602.06;;;29.18;57.01
18527;BME280;9393;42.158;24.748;2023-07-13T02:34:20;99608.19;;;29.08;57.50
18527;BME280;9393;42.158;24.748;2023-07-13T02:37:24;99606.78;;;29.00;57.45
18527;BME280;9393;42.158;24.748;2023-07-13T02:40:29;99600.66;;;29.05;57.32
18527;BME280;9393;42.158;24.748;2023-07-13T02:43:35;99605.69;;;28.91;57.90
18527;BME280;9393;42.158;24.748;2023-07-13T02:46:39;99610.22;;;28.54;59.09
18527;BME280;9393;42.158;24.748;2023-07-13T02:49:43;99607.94;;;28.68;58.39
18527;BME280;9393;42.158;24.748;2023-07-13T02:52:46;99611.44;;;28.36;58.93
18527;BME280;9393;42.158;24.748;2023-07-13T02:55:52;99613.81;;;28.65;58.36
18527;BME280;9393;42.158;24.748;2023-07-13T02:58:56;99620.09;;;28.80;57.52
18527;BME280;9393;42.158;24.748;2023-07-13T03:02:01;99612.88;;;28.81;56.94
18527;BME280;9393;42.158;24.748;2023-07-13T03:05:05;99614.38;;;28.67;57.12
18527;BME280;9393;42.158;24.748;2023-07-13T03:08:11;99620.63;;;28.77;56.41
18527;BME280;9393;42.158;24.748;2023-07-13T03:11:19;99621.03;;;28.64;57.03
18527;BME280;9393;42.158;24.748;2023-07-13T03:14:44;99617.66;;;28.74;56.72
18527;BME280;9393;42.158;24.748;2023-07-13T03:17:48;99618.09;;;28.66;56.49
18527;BME280;9393;42.158;24.748;2023-07-13T03:20:53;99614.94;;;28.42;56.56
18527;BME280;9393;42.158;24.748;2023-07-13T03:23:57;99611.97;;;28.70;55.82
18527;BME280;9393;42.158;24.748;2023-07-13T03:27:04;99597.06;;;28.89;55.17
18527;BME280;9393;42.158;24.748;2023-07-13T03:30:12;99604.41;;;29.04;54.20
18527;BME280;9393;42.158;24.748;2023-07-13T03:33:18;99602.00;;;29.02;53.74
18527;BME280;9393;42.158;24.748;2023-07-13T03:36:23;99607.94;;;29.09;53.64
18527;BME280;9393;42.158;24.748;2023-07-13T03:39:30;99605.44;;;28.98;54.20
18527;BME280;9393;42.158;24.748;2023-07-13T03:42:36;99611.28;;;29.27;53.14
18527;BME280;9393;42.158;24.748;2023-07-13T03:45:40;99610.78;;;29.45;52.90
18527;BME280;9393;42.158;24.748;2023-07-13T03:48:45;99602.72;;;29.40;52.37
18527;BME280;9393;42.158;24.748;2023-07-13T03:51:49;99600.13;;;29.65;52.04
18527;BME280;9393;42.158;24.748;2023-07-13T03:54:55;99608.72;;;29.72;51.25
18527;BME280;9393;42.158;24.748;2023-07-13T03:58:25;99617.97;;;30.01;51.16
18527;BME280;9393;42.158;24.748;2023-07-13T04:01:34;99616.34;;;29.90;51.07
18527;BME280;9393;42.158;24.748;2023-07-13T04:04:38;99618.78;;;29.97;51.20
18527;BME280;9393;42.158;24.748;2023-07-13T04:07:43;99621.47;;;30.07;51.30
18527;BME280;9393;42.158;24.748;2023-07-13T04:10:47;99625.41;;;29.79;52.81
18527;BME280;9393;42.158;24.748;2023-07-13T04:13:53;99625.81;;;30.28;51.42
18527;BME280;9393;42.158;24.748;2023-07-13T04:16:56;99623.41;;;30.17;52.33
18527;BME280;9393;42.158;24.748;2023-07-13T04:20:01;99629.06;;;30.45;51.63
18527;BME280;9393;42.158;24.748;2023-07-13T04:23:04;99634.19;;;30.52;51.40
18527;BME280;9393;42.158;24.748;2023-07-13T04:26:08;99637.09;;;30.15;52.88
18527;BME280;9393;42.158;24.748;2023-07-13T04:29:15;99630.66;;;30.26;52.50
18527;BME280;9393;42.158;24.748;2023-07-13T04:32:19;99641.72;;;30.60;51.79
18527;BME280;9393;42.158;24.748;2023-07-13T04:35:22;99642.00;;;30.64;52.05
18527;BME280;9393;42.158;24.748;2023-07-13T04:38:29;99644.94;;;30.52;52.21
18527;BME280;9393;42.158;24.748;2023-07-13T04:41:33;99642.25;;;30.97;51.25
18527;BME280;9393;42.158;24.748;2023-07-13T04:44:38;99642.22;;;31.13;50.58
18527;BME280;9393;42.158;24.748;2023-07-13T04:47:42;99647.00;;;31.36;50.28
18527;BME280;9393;42.158;24.748;2023-07-13T04:50:46;99643.19;;;31.42;49.66
18527;BME280;9393;42.158;24.748;2023-07-13T04:53:50;99650.31;;;30.97;49.94
18527;BME280;9393;42.158;24.748;2023-07-13T04:57:00;99637.31;;;31.30;50.07
18527;BME280;9393;42.158;24.748;2023-07-13T05:00:06;99644.25;;;31.56;48.73
18527;BME280;9393;42.158;24.748;2023-07-13T05:03:11;99645.63;;;31.38;49.83
18527;BME280;9393;42.158;24.748;2023-07-13T05:06:15;99646.72;;;31.27;49.51
18527;BME280;9393;42.158;24.748;2023-07-13T05:09:19;99649.53;;;31.76;48.74
18527;BME280;9393;42.158;24.748;2023-07-13T05:12:23;99645.19;;;31.85;48.29
18527;BME280;9393;42.158;24.748;2023-07-13T05:15:29;99651.16;;;32.26;46.92
18527;BME280;9393;42.158;24.748;2023-07-13T05:18:32;99647.56;;;32.36;46.63
18527;BME280;9393;42.158;24.748;2023-07-13T05:21:36;99651.88;;;32.37;45.93
18527;BME280;9393;42.158;24.748;2023-07-13T05:24:40;99653.81;;;32.65;45.52
18527;BME280;9393;42.158;24.748;2023-07-13T05:27:44;99656.31;;;32.23;46.04
18527;BME280;9393;42.158;24.748;2023-07-13T05:30:51;99650.44;;;32.11;46.36
18527;BME280;9393;42.158;24.748;2023-07-13T05:33:56;99651.06;;;32.36;45.71
18527;BME280;9393;42.158;24.748;2023-07-13T05:37:00;99654.69;;;32.55;45.86
18527;BME280;9393;42.158;24.748;2023-07-13T05:40:04;99655.50;;;32.61;45.56
18527;BME280;9393;42.158;24.748;2023-07-13T05:43:08;99657.78;;;32.78;45.71
18527;BME280;9393;42.158;24.748;2023-07-13T05:46:14;99657.50;;;33.03;44.93
18527;BME280;9393;42.158;24.748;2023-07-13T05:49:17;99656.41;;;33.33;44.42
18527;BME280;9393;42.158;24.748;2023-07-13T05:52:21;99652.06;;;33.37;44.42
18527;BME280;9393;42.158;24.748;2023-07-13T05:55:25;99650.44;;;33.12;44.08
18527;BME280;9393;42.158;24.748;2023-07-13T05:58:29;99656.50;;;32.70;45.10
18527;BME280;9393;42.158;24.748;2023-07-13T06:01:35;99653.19;;;33.31;43.67
18527;BME280;9393;42.158;24.748;2023-07-13T06:04:38;99646.25;;;32.96;43.75
18527;BME280;9393;42.158;24.748;2023-07-13T06:07:42;99657.97;;;33.63;43.36
18527;BME280;9393;42.158;24.748;2023-07-13T06:10:47;99661.34;;;33.49;43.49
18527;BME280;9393;42.158;24.748;2023-07-13T06:13:51;99663.00;;;33.45;42.40
18527;BME280;9393;42.158;24.748;2023-07-13T06:16:57;99668.84;;;33.34;42.63
18527;BME280;9393;42.158;24.748;2023-07-13T06:20:01;99665.63;;;33.32;42.99
18527;BME280;9393;42.158;24.748;2023-07-13T06:23:05;99668.00;;;33.81;42.08
18527;BME280;9393;42.158;24.748;2023-07-13T06:26:10;99656.31;;;33.85;41.63
18527;BME280;9393;42.158;24.748;2023-07-13T06:29:14;99651.78;;;33.57;41.75
18527;BME280;9393;42.158;24.748;2023-07-13T06:32:19;99655.38;;;33.95;41.36
18527;BME280;9393;42.158;24.748;2023-07-13T06:35:23;99651.28;;;33.97;40.96
18527;BME280;9393;42.158;24.748;2023-07-13T06:38:27;99644.63;;;34.09;40.25
18527;BME280;9393;42.158;24.748;2023-07-13T06:41:31;99638.69;;;34.44;39.52
18527;BME280;9393;42.158;24.748;2023-07-13T06:44:35;99637.22;;;34.33;39.98
18527;BME280;9393;42.158;24.748;2023-07-13T06:47:41;99636.69;;;34.68;39.52
18527;BME280;9393;42.158;24.748;2023-07-13T06:50:45;99641.31;;;34.81;38.60
18527;BME280;9393;42.158;24.748;2023-07-13T06:53:49;99637.13;;;34.89;39.05
18527;BME280;9393;42.158;24.748;2023-07-13T06:56:53;99636.72;;;34.95;38.76
18527;BME280;9393;42.158;24.748;2023-07-13T06:59:57;99632.63;;;35.12;38.74
18527;BME280;9393;42.158;24.748;2023-07-13T07:03:02;99639.47;;;35.23;38.61
18527;BME280;9393;42.158;24.748;2023-07-13T07:06:13;99633.63;;;35.43;38.35
18527;BME280;9393;42.158;24.748;2023-07-13T07:09:17;99638.22;;;35.56;37.63
18527;BME280;9393;42.158;24.748;2023-07-13T07:12:21;99642.44;;;35.76;37.95
18527;BME280;9393;42.158;24.748;2023-07-13T07:15:25;99640.19;;;35.91;36.91
18527;BME280;9393;42.158;24.748;2023-07-13T07:18:30;99640.47;;;35.27;37.31
18527;BME280;9393;42.158;24.748;2023-07-13T07:21:34;99637.25;;;36.02;37.52
18527;BME280;9393;42.158;24.748;2023-07-13T07:24:38;99634.41;;;36.20;37.12
18527;BME280;9393;42.158;24.748;2023-07-13T07:27:43;99628.28;;;36.15;36.23
18527;BME280;9393;42.158;24.748;2023-07-13T07:30:52;99635.97;;;36.57;35.83
18527;BME280;9393;42.158;24.748;2023-07-13T07:34:18;99630.81;;;36.78;35.79
18527;BME280;9393;42.158;24.748;2023-07-13T07:37:22;99630.94;;;36.51;36.00
18527;BME280;9393;42.158;24.748;2023-07-13T07:40:46;99627.91;;;37.05;34.62
18527;BME280;9393;42.158;24.748;2023-07-13T07:43:52;99628.47;;;36.93;34.34
18527;BME280;9393;42.158;24.748;2023-07-13T07:46:56;99626.69;;;37.20;34.53
18527;BME280;9393;42.158;24.748;2023-07-13T07:50:02;99622.94;;;37.07;34.35
18527;BME280;9393;42.158;24.748;2023-07-13T07:53:06;99619.16;;;37.17;33.98
18527;BME280;9393;42.158;24.748;2023-07-13T07:56:12;99617.47;;;36.99;34.64
18527;BME280;9393;42.158;24.748;2023-07-13T07:59:21;99618.81;;;37.10;33.87
18527;BME280;9393;42.158;24.748;2023-07-13T08:02:27;99618.59;;;37.45;34.03
18527;BME280;9393;42.158;24.748;2023-07-13T08:05:37;99611.53;;;36.96;34.66
18527;BME280;9393;42.158;24.748;2023-07-13T08:08:59;99615.84;;;37.45;33.55
18527;BME280;9393;42.158;24.748;2023-07-13T08:12:04;99607.25;;;37.52;33.65
18527;BME280;9393;42.158;24.748;2023-07-13T08:15:14;99604.88;;;37.76;33.84
18527;BME280;9393;42.158;24.748;2023-07-13T08:18:18;99599.44;;;37.51;33.95
18527;BME280;9393;42.158;24.748;2023-07-13T08:21:24;99600.25;;;37.85;33.92
18527;BME280;9393;42.158;24.748;2023-07-13T08:24:27;99603.16;;;38.15;33.29
18527;BME280;9393;42.158;24.748;2023-07-13T08:27:32;99607.78;;;37.88;33.10
18527;BME280;9393;42.158;24.748;2023-07-13T08:30:36;99600.13;;;38.16;32.65
18527;BME280;9393;42.158;24.748;2023-07-13T08:33:40;99603.91;;;38.58;32.41
18527;BME280;9393;42.158;24.748;2023-07-13T08:36:45;99598.13;;;38.60;32.19
18527;BME280;9393;42.158;24.748;2023-07-13T08:39:49;99602.66;;;38.38;32.38
18527;BME280;9393;42.158;24.748;2023-07-13T08:42:54;99590.94;;;38.38;32.24
18527;BME280;9393;42.158;24.748;2023-07-13T08:46:02;99585.78;;;38.54;32.48
18527;BME280;9393;42.158;24.748;2023-07-13T08:49:12;99577.47;;;38.33;32.04
18527;BME280;9393;42.158;24.748;2023-07-13T08:52:28;99574.03;;;38.62;31.22
18527;BME280;9393;42.158;24.748;2023-07-13T08:55:36;99576.72;;;38.87;30.78
18527;BME280;9393;42.158;24.748;2023-07-13T08:58:41;99576.47;;;38.63;30.69
18527;BME280;9393;42.158;24.748;2023-07-13T09:01:58;99575.75;;;38.83;29.60
18527;BME280;9393;42.158;24.748;2023-07-13T09:05:12;99578.88;;;39.03;30.36
18527;BME280;9393;42.158;24.748;2023-07-13T09:08:35;99564.13;;;39.33;29.49
18527;BME280;9393;42.158;24.748;2023-07-13T09:11:48;99566.38;;;39.02;29.84
18527;BME280;9393;42.158;24.748;2023-07-13T09:14:54;99557.81;;;39.41;29.73
18527;BME280;9393;42.158;24.748;2023-07-13T09:18:04;99554.84;;;39.55;29.48
18527;BME280;9393;42.158;24.748;2023-07-13T09:21:12;99555.03;;;39.70;28.60
18527;BME280;9393;42.158;24.748;2023-07-13T09:24:36;99559.09;;;39.85;28.74
18527;BME280;9393;42.158;24.748;2023-07-13T09:27:43;99550.91;;;39.85;27.87
18527;BME280;9393;42.158;24.748;2023-07-13T09:30:52;99543.31;;;40.23;27.31
18527;BME280;9393;42.158;24.748;2023-07-13T09:33:58;99531.59;;;40.35;27.38
18527;BME280;9393;42.158;24.748;2023-07-13T09:37:01;99530.34;;;40.45;26.96
18527;BME280;9393;42.158;24.748;2023-07-13T09:40:12;99518.41;;;40.49;26.30
18527;BME280;9393;42.158;24.748;2023-07-13T09:43:20;99515.94;;;40.44;26.98
18527;BME280;9393;42.158;24.748;2023-07-13T09:46:25;99511.47;;;40.07;26.78
18527;BME280;9393;42.158;24.748;2023-07-13T09:49:34;99498.69;;;40.31;26.71
18527;BME280;9393;42.158;24.748;2023-07-13T09:52:41;99489.75;;;40.55;26.71
18527;BME280;9393;42.158;24.748;2023-07-13T09:55:48;99498.38;;;40.45;26.91
18527;BME280;9393;42.158;24.748;2023-07-13T09:58:56;99495.28;;;40.22;26.17
18527;BME280;9393;42.158;24.748;2023-07-13T10:02:01;99488.00;;;40.26;26.23
18527;BME280;9393;42.158;24.748;2023-07-13T10:05:11;99484.94;;;40.40;25.88
18527;BME280;9393;42.158;24.748;2023-07-13T10:08:20;99484.06;;;40.60;25.03
18527;BME280;9393;42.158;24.748;2023-07-13T10:11:27;99476.72;;;40.16;24.77
18527;BME280;9393;42.158;24.748;2023-07-13T10:14:32;99471.53;;;40.59;24.89
18527;BME280;9393;42.158;24.748;2023-07-13T10:17:36;99472.53;;;40.43;24.97
18527;BME280;9393;42.158;24.748;2023-07-13T10:20:40;99468.78;;;40.59;25.66
18527;BME280;9393;42.158;24.748;2023-07-13T10:23:48;99466.28;;;40.66;24.69
18527;BME280;9393;42.158;24.748;2023-07-13T10:27:03;99474.44;;;41.15;25.10
18527;BME280;9393;42.158;24.748;2023-07-13T10:30:13;99474.63;;;41.34;24.50
18527;BME280;9393;42.158;24.748;2023-07-13T10:33:20;99463.91;;;41.29;23.91
18527;BME280;9393;42.158;24.748;2023-07-13T10:36:32;99463.31;;;40.96;23.57
18527;BME280;9393;42.158;24.748;2023-07-13T10:39:38;99449.16;;;40.94;23.60
18527;BME280;9393;42.158;24.748;2023-07-13T10:42:46;99449.63;;;41.35;23.79
18527;BME280;9393;42.158;24.748;2023-07-13T10:45:54;99439.91;;;41.10;23.41
18527;BME280;9393;42.158;24.748;2023-07-13T10:49:03;99442.56;;;41.34;23.67
18527;BME280;9393;42.158;24.748;2023-07-13T10:52:40;99441.31;;;41.44;24.10
18527;BME280;9393;42.158;24.748;2023-07-13T10:55:56;99432.78;;;41.89;23.80
18527;BME280;9393;42.158;24.748;2023-07-13T10:59:11;99427.13;;;41.98;22.94
18527;BME280;9393;42.158;24.748;2023-07-13T11:02:26;99419.78;;;41.86;22.92
18527;BME280;9393;42.158;24.748;2023-07-13T11:05:32;99418.50;;;41.68;22.46
18527;BME280;9393;42.158;24.748;2023-07-13T11:08:39;99414.00;;;41.75;23.18
18527;BME280;9393;42.158;24.748;2023-07-13T11:11:56;99413.53;;;41.30;23.19
18527;BME280;9393;42.158;24.748;2023-07-13T11:15:09;99421.06;;;41.21;22.64
18527;BME280;9393;42.158;24.748;2023-07-13T11:18:24;99417.00;;;41.15;22.81
18527;BME280;9393;42.158;24.748;2023-07-13T11:21:28;99416.22;;;41.42;22.45
18527;BME280;9393;42.158;24.748;2023-07-13T11:24:54;99406.88;;;41.43;22.27
18527;BME280;9393;42.158;24.748;2023-07-13T11:28:15;99411.03;;;41.80;22.28
18527;BME280;9393;42.158;24.748;2023-07-13T11:31:21;99407.69;;;41.87;22.12
18527;BME280;9393;42.158;24.748;2023-07-13T11:34:28;99399.81;;;41.86;21.64
18527;BME280;9393;42.158;24.748;2023-07-13T11:37:34;99400.34;;;41.91;22.24
18527;BME280;9393;42.158;24.748;2023-07-13T11:40:39;99400.97;;;41.85;22.52
18527;BME280;9393;42.158;24.748;2023-07-13T11:43:43;99398.47;;;42.11;22.23
18527;BME280;9393;42.158;24.748;2023-07-13T11:46:50;99394.25;;;42.29;21.12
18527;BME280;9393;42.158;24.748;2023-07-13T11:49:57;99399.81;;;42.33;21.64
18527;BME280;9393;42.158;24.748;2023-07-13T11:53:01;99387.91;;;42.25;21.67
18527;BME280;9393;42.158;24.748;2023-07-13T11:56:06;99394.09;;;42.22;21.29
18527;BME280;9393;42.158;24.748;2023-07-13T11:59:13;99380.91;;;42.12;21.73
18527;BME280;9393;42.158;24.748;2023-07-13T12:02:26;99371.09;;;42.26;21.44
18527;BME280;9393;42.158;24.748;2023-07-13T12:05:31;99364.28;;;42.36;21.91
18527;BME280;9393;42.158;24.748;2023-07-13T12:08:38;99355.34;;;42.08;21.11
18527;BME280;9393;42.158;24.748;2023-07-13T12:11:43;99352.19;;;42.06;21.46
18527;BME280;9393;42.158;24.748;2023-07-13T12:14:51;99345.88;;;41.74;21.63
18527;BME280;9393;42.158;24.748;2023-07-13T12:17:56;99347.22;;;42.11;21.20
18527;BME280;9393;42.158;24.748;2023-07-13T12:21:00;99343.50;;;42.04;21.42
18527;BME280;9393;42.158;24.748;2023-07-13T12:24:14;99340.50;;;42.24;21.79
18527;BME280;9393;42.158;24.748;2023-07-13T12:27:21;99341.41;;;42.13;21.30
18527;BME280;9393;42.158;24.748;2023-07-13T12:30:27;99329.66;;;41.97;21.60
18527;BME280;9393;42.158;24.748;2023-07-13T12:33:35;99331.75;;;42.03;21.14
18527;BME280;9393;42.158;24.748;2023-07-13T12:36:46;99331.59;;;42.12;21.45
18527;BME280;9393;42.158;24.748;2023-07-13T12:39:51;99324.25;;;42.16;21.28
18527;BME280;9393;42.158;24.748;2023-07-13T12:42:55;99311.63;;;42.46;21.12
18527;BME280;9393;42.158;24.748;2023-07-13T12:46:02;99311.72;;;42.50;21.69
18527;BME280;9393;42.158;24.748;2023-07-13T12:49:07;99311.31;;;42.67;21.97
18527;BME280;9393;42.158;24.748;2023-07-13T12:52:23;99301.94;;;42.33;21.69
18527;BME280;9393;42.158;24.748;2023-07-13T12:55:27;99299.94;;;42.30;21.57
18527;BME280;9393;42.158;24.748;2023-07-13T12:58:37;99298.38;;;41.98;21.62
18527;BME280;9393;42.158;24.748;2023-07-13T13:01:43;99296.91;;;42.35;22.01
18527;BME280;9393;42.158;24.748;2023-07-13T13:04:49;99294.41;;;41.95;22.18
18527;BME280;9393;42.158;24.748;2023-07-13T13:07:53;99286.88;;;42.23;21.85
18527;BME280;9393;42.158;24.748;2023-07-13T13:10:57;99282.31;;;42.31;22.27
18527;BME280;9393;42.158;24.748;2023-07-13T13:14:01;99283.34;;;42.42;21.08
18527;BME280;9393;42.158;24.748;2023-07-13T13:17:16;99294.53;;;42.68;22.10
18527;BME280;9393;42.158;24.748;2023-07-13T13:20:23;99288.25;;;42.52;22.38
18527;BME280;9393;42.158;24.748;2023-07-13T13:23:28;99284.94;;;42.43;22.59
18527;BME280;9393;42.158;24.748;2023-07-13T13:26:32;99276.75;;;42.62;22.61
18527;BME280;9393;42.158;24.748;2023-07-13T13:29:39;99275.44;;;42.21;22.70
18527;BME280;9393;42.158;24.748;2023-07-13T13:32:45;99258.19;;;41.86;22.76
18527;BME280;9393;42.158;24.748;2023-07-13T13:35:51;99262.50;;;41.87;23.13
18527;BME280;9393;42.158;24.748;2023-07-13T13:38:55;99261.16;;;41.97;22.80
18527;BME280;9393;42.158;24.748;2023-07-13T13:41:59;99264.91;;;41.89;22.77
18527;BME280;9393;42.158;24.748;2023-07-13T13:45:04;99271.16;;;41.73;22.71
18527;BME280;9393;42.158;24.748;2023-07-13T13:48:14;99258.69;;;41.76;22.45
18527;BME280;9393;42.158;24.748;2023-07-13T13:51:20;99258.97;;;41.87;22.47
18527;BME280;9393;42.158;24.748;2023-07-13T13:54:25;99250.41;;;41.88;22.14
18527;BME280;9393;42.158;24.748;2023-07-13T13:57:29;99248.09;;;41.74;22.52
18527;BME280;9393;42.158;24.748;2023-07-13T14:00:33;99241.91;;;41.62;22.54
18527;BME280;9393;42.158;24.748;2023-07-13T14:03:37;99241.03;;;41.73;22.58
18527;BME280;9393;42.158;24.748;2023-07-13T14:06:43;99243.25;;;41.52;22.80
18527;BME280;9393;42.158;24.748;2023-07-13T14:09:47;99248.63;;;41.33;23.26
18527;BME280;9393;42.158;24.748;2023-07-13T14:12:52;99242.25;;;41.76;23.33
18527;BME280;9393;42.158;24.748;2023-07-13T14:15:57;99228.69;;;41.79;22.98
18527;BME280;9393;42.158;24.748;2023-07-13T14:19:02;99235.91;;;41.88;22.75
18527;BME280;9393;42.158;24.748;2023-07-13T14:22:08;99228.75;;;41.83;23.04
18527;BME280;9393;42.158;24.748;2023-07-13T14:25:12;99226.41;;;41.81;23.14
18527;BME280;9393;42.158;24.748;2023-07-13T14:28:21;99224.44;;;41.66;22.82
18527;BME280;9393;42.158;24.748;2023-07-13T14:31:27;99225.66;;;41.22;22.99
18527;BME280;9393;42.158;24.748;2023-07-13T14:34:32;99216.94;;;41.79;22.56
18527;BME280;9393;42.158;24.748;2023-07-13T14:37:38;99215.25;;;41.74;22.78
18527;BME280;9393;42.158;24.748;2023-07-13T14:40:43;99214.63;;;41.65;22.89
18527;BME280;9393;42.158;24.748;2023-07-13T14:43:47;99220.75;;;41.43;23.75
18527;BME280;9393;42.158;24.748;2023-07-13T14:46:52;99221.81;;;41.54;23.59
18527;BME280;9393;42.158;24.748;2023-07-13T14:49:56;99215.25;;;41.74;23.05
18527;BME280;9393;42.158;24.748;2023-07-13T14:53:02;99208.19;;;41.73;23.38
18527;BME280;9393;42.158;24.748;2023-07-13T14:56:10;99216.22;;;41.66;22.77
18527;BME280;9393;42.158;24.748;2023-07-13T14:59:15;99212.19;;;41.60;22.92
18527;BME280;9393;42.158;24.748;2023-07-13T15:02:26;99204.13;;;41.20;23.40
18527;BME280;9393;42.158;24.748;2023-07-13T15:05:32;99203.25;;;41.32;23.43
18527;BME280;9393;42.158;24.748;2023-07-13T15:08:38;99204.84;;;41.49;22.73
18527;BME280;9393;42.158;24.748;2023-07-13T15:11:43;99204.03;;;41.32;23.21
18527;BME280;9393;42.158;24.748;2023-07-13T15:14:46;99197.97;;;41.39;23.04
18527;BME280;9393;42.158;24.748;2023-07-13T15:17:50;99205.94;;;41.44;22.90
18527;BME280;9393;42.158;24.748;2023-07-13T15:20:54;99207.94;;;41.63;23.13
18527;BME280;9393;42.158;24.748;2023-07-13T15:24:01;99203.72;;;41.50;22.51
18527;BME280;9393;42.158;24.748;2023-07-13T15:27:10;99203.63;;;41.30;23.05
18527;BME280;9393;42.158;24.748;2023-07-13T15:30:14;99200.53;;;41.48;22.80
18527;BME280;9393;42.158;24.748;2023-07-13T15:33:21;99202.19;;;41.37;22.50
18527;BME280;9393;42.158;24.748;2023-07-13T15:36:27;99205.19;;;41.31;23.02
18527;BME280;9393;42.158;24.748;2023-07-13T15:39:35;99207.06;;;41.43;22.40
18527;BME280;9393;42.158;24.748;2023-07-13T15:42:40;99206.09;;;41.51;22.85
18527;BME280;9393;42.158;24.748;2023-07-13T15:45:45;99202.38;;;41.59;23.07
18527;BME280;9393;42.158;24.748;2023-07-13T15:48:50;99198.84;;;41.43;22.30
18527;BME280;9393;42.158;24.748;2023-07-13T15:51:55;99203.78;;;41.22;22.88
18527;BME280;9393;42.158;24.748;2023-07-13T15:55:01;99207.38;;;41.10;23.05
18527;BME280;9393;42.158;24.748;2023-07-13T15:58:05;99210.22;;;40.86;22.95
18527;BME280;9393;42.158;24.748;2023-07-13T16:01:13;99204.53;;;40.63;23.15
18527;BME280;9393;42.158;24.748;2023-07-13T16:04:17;99205.13;;;40.57;23.46
18527;BME280;9393;42.158;24.748;2023-07-13T16:07:22;99215.34;;;40.72;23.10
18527;BME280;9393;42.158;24.748;2023-07-13T16:10:32;99207.97;;;40.48;23.87
18527;BME280;9393;42.158;24.748;2023-07-13T16:13:36;99211.00;;;40.71;23.59
18527;BME280;9393;42.158;24.748;2023-07-13T16:16:42;99211.81;;;40.71;23.84
18527;BME280;9393;42.158;24.748;2023-07-13T16:19:48;99201.97;;;40.43;23.79
18527;BME280;9393;42.158;24.748;2023-07-13T16:22:53;99209.41;;;40.70;24.37
18527;BME280;9393;42.158;24.748;2023-07-13T16:26:00;99204.28;;;40.41;24.16
18527;BME280;9393;42.158;24.748;2023-07-13T16:29:10;99206.19;;;40.40;24.02